createdAt,value
2023-05-13T00:00:52.856Z,8.19
2023-05-13T00:01:54.618Z,9.00
2023-05-13T00:02:56.434Z,9.01
2023-05-13T00:03:58.168Z,8.92
2023-05-13T00:04:59.808Z,8.87
2023-05-13T00:06:01.512Z,8.87
2023-05-13T00:07:03.302Z,8.84
2023-05-13T00:08:05.103Z,8.65
2023-05-13T00:09:06.762Z,8.89
2023-05-13T00:10:09.124Z,8.02
2023-05-13T00:11:10.949Z,8.75
2023-05-13T00:12:12.730Z,8.94
2023-05-13T00:13:14.454Z,9.03
2023-05-13T00:14:16.214Z,8.89
2023-05-13T00:15:17.968Z,8.87
2023-05-13T00:16:19.822Z,8.92
2023-05-13T00:17:21.782Z,8.08
2023-05-13T00:18:23.563Z,8.80
2023-05-13T00:19:25.316Z,8.67
2023-05-13T00:20:27.111Z,7.85
2023-05-13T00:21:28.968Z,8.88
2023-05-13T00:22:30.795Z,8.78
2023-05-13T00:23:32.780Z,8.13
2023-05-13T00:24:34.809Z,8.93
2023-05-13T00:25:36.646Z,9.00
2023-05-13T00:26:38.385Z,8.99
2023-05-13T00:27:40.090Z,8.90
2023-05-13T00:28:41.778Z,8.94
2023-05-13T00:29:43.561Z,8.99
2023-05-13T00:30:46.166Z,8.13
2023-05-13T00:31:47.969Z,8.89
2023-05-13T00:32:49.915Z,8.96
2023-05-13T00:33:51.690Z,8.97
2023-05-13T00:34:53.503Z,8.83
2023-05-13T00:35:55.249Z,8.75
2023-05-13T00:36:57.018Z,8.98
2023-05-13T00:37:58.808Z,8.82
2023-05-13T00:39:00.600Z,8.76
2023-05-13T00:40:02.307Z,7.97
2023-05-13T00:41:04.645Z,7.79
2023-05-13T00:42:06.472Z,8.69
2023-05-13T00:43:08.209Z,8.73
2023-05-13T00:44:10.023Z,8.90
2023-05-13T00:45:11.747Z,8.86
2023-05-13T00:46:15.187Z,8.15
2023-05-13T00:47:17.342Z,8.77
2023-05-13T00:48:19.197Z,8.74
2023-05-13T00:49:21.013Z,8.02
2023-05-13T00:50:23.226Z,8.71
2023-05-13T00:51:25.378Z,7.79
2023-05-13T00:52:27.789Z,8.71
2023-05-13T00:53:32.472Z,8.65
2023-05-13T00:54:34.206Z,8.68
2023-05-13T00:55:35.974Z,8.75
2023-05-13T00:56:38.895Z,8.72
2023-05-13T00:57:40.835Z,8.57
2023-05-13T00:58:42.601Z,8.66
2023-05-13T00:59:44.410Z,8.60
2023-05-13T01:01:21.195Z,8.62
2023-05-13T01:02:32.767Z,8.55
2023-05-13T01:04:06.060Z,8.51
2023-05-13T01:05:31.865Z,8.64
2023-05-13T01:07:17.685Z,8.57
2023-05-13T01:08:42.937Z,8.59
2023-05-13T01:10:13.759Z,8.47
2023-05-13T01:11:22.992Z,7.62
2023-05-13T01:12:45.196Z,8.45
2023-05-13T01:13:49.614Z,8.56
2023-05-13T01:15:14.816Z,7.77
2023-05-13T01:16:24.944Z,7.85
2023-05-13T01:17:38.114Z,8.52
2023-05-13T01:18:52.805Z,7.70
2023-05-13T01:20:00.619Z,7.73
2023-05-13T01:21:05.302Z,8.55
2023-05-13T01:22:07.028Z,8.48
2023-05-13T01:23:12.681Z,7.76
2023-05-13T01:24:14.513Z,7.63
2023-05-13T01:25:16.352Z,8.53
2023-05-13T01:26:18.100Z,8.11
2023-05-13T01:27:20.193Z,8.37
2023-05-13T01:28:22.240Z,8.48
2023-05-13T01:29:24.023Z,8.29
2023-05-13T01:30:25.975Z,7.79
2023-05-13T01:31:29.707Z,8.43
2023-05-13T01:32:32.108Z,8.10
2023-05-13T01:33:34.025Z,8.34
2023-05-13T01:34:36.126Z,7.70
2023-05-13T01:35:38.420Z,8.52
2023-05-13T01:36:40.393Z,8.50
2023-05-13T01:37:43.637Z,8.53
2023-05-13T01:38:46.080Z,8.50
2023-05-13T01:39:48.526Z,7.68
2023-05-13T01:40:51.115Z,7.77
2023-05-13T01:41:52.958Z,8.44
2023-05-13T01:42:54.685Z,8.45
2023-05-13T01:43:56.428Z,8.33
2023-05-13T01:44:58.144Z,8.38
2023-05-13T01:46:01.739Z,8.43
2023-05-13T01:47:03.539Z,8.44
2023-05-13T01:48:05.571Z,8.57
2023-05-13T01:49:07.270Z,8.55
2023-05-13T01:50:40.082Z,8.63
2023-05-13T01:51:42.015Z,8.58
2023-05-13T01:52:43.817Z,8.48
2023-05-13T01:53:45.652Z,7.88
2023-05-13T01:54:47.420Z,8.58
2023-05-13T01:55:49.193Z,7.78
2023-05-13T01:56:50.899Z,7.92
2023-05-13T01:57:52.670Z,7.85
2023-05-13T01:58:54.394Z,8.06
2023-05-13T01:59:56.148Z,8.67
2023-05-13T02:00:57.908Z,8.00
2023-05-13T02:01:59.686Z,8.70
2023-05-13T02:03:01.612Z,8.21
2023-05-13T02:04:03.474Z,8.52
2023-05-13T02:05:05.431Z,8.00
2023-05-13T02:06:07.193Z,8.45
2023-05-13T02:07:08.882Z,8.68
2023-05-13T02:08:10.699Z,8.63
2023-05-13T02:09:12.464Z,8.71
2023-05-13T02:10:14.275Z,8.65
2023-05-13T02:11:16.037Z,7.95
2023-05-13T02:12:17.798Z,7.79
2023-05-13T02:13:19.560Z,8.55
2023-05-13T02:14:21.392Z,7.73
2023-05-13T02:15:23.100Z,8.63
2023-05-13T02:16:24.898Z,7.76
2023-05-13T02:17:26.750Z,8.53
2023-05-13T02:18:28.664Z,8.66
2023-05-13T02:19:30.463Z,7.75
2023-05-13T02:20:32.185Z,7.91
2023-05-13T02:21:33.855Z,8.22
2023-05-13T02:22:35.556Z,8.52
2023-05-13T02:23:37.322Z,8.48
2023-05-13T02:24:39.487Z,8.55
2023-05-13T02:25:44.672Z,8.48
2023-05-13T02:26:46.389Z,8.30
2023-05-13T02:27:48.157Z,8.44
2023-05-13T02:28:50.139Z,7.78
2023-05-13T02:29:51.879Z,7.99
2023-05-13T02:30:53.662Z,8.33
2023-05-13T02:31:55.486Z,8.32
2023-05-13T02:32:57.826Z,8.33
2023-05-13T02:33:59.652Z,8.50
2023-05-13T02:35:01.337Z,7.63
2023-05-13T02:36:03.157Z,8.39
2023-05-13T02:37:05.745Z,8.57
2023-05-13T02:38:10.178Z,8.47
2023-05-13T02:39:11.965Z,8.62
2023-05-13T02:40:14.057Z,8.61
2023-05-13T02:41:15.881Z,7.87
2023-05-13T02:42:17.697Z,7.76
2023-05-13T02:43:19.472Z,7.74
2023-05-13T02:44:21.285Z,8.63
2023-05-13T02:45:22.942Z,8.53
2023-05-13T02:46:24.732Z,8.60
2023-05-13T02:47:26.572Z,7.95
2023-05-13T02:48:28.376Z,8.50
2023-05-13T02:49:30.163Z,8.44
2023-05-13T02:50:31.939Z,8.57
2023-05-13T02:51:33.560Z,8.37
2023-05-13T02:52:35.461Z,7.66
2023-05-13T02:53:37.181Z,8.60
2023-05-13T02:54:38.907Z,7.90
2023-05-13T02:55:40.769Z,8.54
2023-05-13T02:56:42.551Z,8.53
2023-05-13T02:57:44.337Z,8.57
2023-05-13T02:58:46.113Z,8.53
2023-05-13T02:59:48.069Z,8.42
2023-05-13T03:00:49.850Z,8.59
2023-05-13T03:01:51.652Z,8.55
2023-05-13T03:02:53.573Z,8.56
2023-05-13T03:03:55.332Z,8.55
2023-05-13T03:04:57.155Z,8.57
2023-05-13T03:05:58.978Z,7.82
2023-05-13T03:07:00.736Z,7.80
2023-05-13T03:08:02.460Z,8.57
2023-05-13T03:09:04.169Z,7.86
2023-05-13T03:10:06.966Z,8.57
2023-05-13T03:11:08.824Z,8.58
2023-05-13T03:12:10.603Z,8.65
2023-05-13T03:13:12.395Z,8.73
2023-05-13T03:14:14.434Z,8.70
2023-05-13T03:15:17.033Z,8.70
2023-05-13T03:16:18.877Z,8.59
2023-05-13T03:17:20.737Z,8.67
2023-05-13T03:18:22.486Z,8.62
2023-05-13T03:19:24.254Z,8.00
2023-05-13T03:20:26.001Z,8.72
2023-05-13T03:21:27.747Z,8.67
2023-05-13T03:22:29.454Z,8.55
2023-05-13T03:23:33.219Z,8.14
2023-05-13T03:24:35.034Z,8.65
2023-05-13T03:25:36.712Z,8.50
2023-05-13T03:26:38.486Z,8.57
2023-05-13T03:27:40.192Z,8.32
2023-05-13T03:28:41.966Z,8.54
2023-05-13T03:29:43.903Z,7.75
2023-05-13T03:30:45.677Z,8.60
2023-05-13T03:31:47.465Z,8.53
2023-05-13T03:32:49.326Z,8.62
2023-05-13T03:33:50.988Z,8.69
2023-05-13T03:34:52.708Z,8.62
2023-05-13T03:35:54.537Z,7.97
2023-05-13T03:36:56.265Z,8.23
2023-05-13T03:37:58.018Z,8.65
2023-05-13T03:38:59.752Z,7.91
2023-05-13T03:40:01.456Z,8.47
2023-05-13T03:41:03.138Z,8.55
2023-05-13T03:42:05.103Z,8.60
2023-05-13T03:43:06.886Z,7.79
2023-05-13T03:44:08.633Z,7.70
2023-05-13T03:45:10.625Z,8.62
2023-05-13T03:46:12.445Z,8.45
2023-05-13T03:47:14.320Z,8.64
2023-05-13T03:48:16.048Z,7.85
2023-05-13T03:49:17.974Z,8.15
2023-05-13T03:50:19.773Z,8.48
2023-05-13T03:51:22.321Z,8.59
2023-05-13T03:52:24.063Z,8.56
2023-05-13T03:53:25.795Z,8.54
2023-05-13T03:54:27.483Z,8.63
2023-05-13T03:55:29.266Z,7.88
2023-05-13T03:56:30.961Z,8.71
2023-05-13T03:57:32.703Z,8.69
2023-05-13T03:58:34.401Z,7.76
2023-05-13T03:59:36.128Z,8.49
2023-05-13T04:00:37.882Z,8.50
2023-05-13T04:01:40.254Z,7.72
2023-05-13T04:02:42.353Z,8.33
2023-05-13T04:03:44.300Z,8.59
2023-05-13T04:04:46.078Z,8.50
2023-05-13T04:05:48.610Z,8.51
2023-05-13T04:06:50.318Z,8.61
2023-05-13T04:07:52.069Z,7.87
2023-05-13T04:08:53.726Z,8.06
2023-05-13T04:09:55.405Z,8.66
2023-05-13T04:10:57.152Z,8.05
2023-05-13T04:11:58.934Z,8.11
2023-05-13T04:13:00.670Z,8.71
2023-05-13T04:14:02.430Z,8.64
2023-05-13T04:15:04.713Z,8.20
2023-05-13T04:16:06.489Z,8.81
2023-05-13T04:17:08.210Z,8.91
2023-05-13T04:18:10.179Z,8.16
2023-05-13T04:19:12.110Z,8.04
2023-05-13T04:20:13.997Z,8.95
2023-05-13T04:21:15.692Z,8.10
2023-05-13T04:22:17.383Z,8.29
2023-05-13T04:23:19.068Z,8.07
2023-05-13T04:24:20.772Z,8.88
2023-05-13T04:25:22.542Z,8.55
2023-05-13T04:26:24.859Z,8.89
2023-05-13T04:27:26.789Z,8.96
2023-05-13T04:28:28.596Z,8.95
2023-05-13T04:29:30.293Z,9.05
2023-05-13T04:30:32.191Z,9.04
2023-05-13T04:31:33.954Z,9.04
2023-05-13T04:32:36.019Z,8.96
2023-05-13T04:33:37.803Z,8.33
2023-05-13T04:34:39.468Z,9.03
2023-05-13T04:35:41.129Z,9.19
2023-05-13T04:36:42.853Z,8.36
2023-05-13T04:37:44.655Z,8.32
2023-05-13T04:38:46.397Z,8.27
2023-05-13T04:39:48.799Z,9.08
2023-05-13T04:40:50.501Z,9.01
2023-05-13T04:41:52.216Z,9.18
2023-05-13T04:42:54.066Z,9.26
2023-05-13T04:43:55.804Z,9.16
2023-05-13T04:44:57.564Z,9.18
2023-05-13T04:45:59.274Z,9.03
2023-05-13T04:47:01.178Z,8.35
2023-05-13T04:48:02.918Z,9.16
2023-05-13T04:49:04.752Z,9.10
2023-05-13T04:50:07.062Z,9.07
2023-05-13T04:51:09.320Z,8.51
2023-05-13T04:52:11.840Z,8.41
2023-05-13T04:53:14.229Z,8.93
2023-05-13T04:54:15.920Z,8.93
2023-05-13T04:55:17.759Z,9.11
2023-05-13T04:56:19.496Z,9.03
2023-05-13T04:57:21.221Z,8.38
2023-05-13T04:58:23.020Z,8.75
2023-05-13T04:59:24.716Z,8.52
2023-05-13T05:00:26.452Z,9.18
2023-05-13T05:01:28.196Z,9.26
2023-05-13T05:02:30.235Z,8.55
2023-05-13T05:03:32.100Z,9.36
2023-05-13T05:04:33.953Z,9.31
2023-05-13T05:05:35.633Z,9.43
2023-05-13T05:06:37.368Z,9.39
2023-05-13T05:07:39.003Z,9.36
2023-05-13T05:08:40.807Z,9.47
2023-05-13T05:09:42.703Z,9.37
2023-05-13T05:10:44.451Z,9.60
2023-05-13T05:11:46.234Z,9.57
2023-05-13T05:12:48.232Z,9.65
2023-05-13T05:13:50.048Z,8.91
2023-05-13T05:14:51.763Z,9.16
2023-05-13T05:15:53.468Z,9.20
2023-05-13T05:16:55.183Z,9.26
2023-05-13T05:17:57.269Z,9.50
2023-05-13T05:18:59.272Z,10.26
2023-05-13T05:20:01.123Z,10.36
2023-05-13T05:21:03.364Z,10.02
2023-05-13T05:22:05.238Z,9.56
2023-05-13T05:23:07.007Z,10.60
2023-05-13T05:24:08.841Z,10.31
2023-05-13T05:25:10.897Z,10.51
2023-05-13T05:26:12.826Z,10.61
2023-05-13T05:27:14.665Z,10.52
2023-05-13T05:28:16.319Z,10.48
2023-05-13T05:29:18.096Z,10.45
2023-05-13T05:30:20.213Z,10.62
2023-05-13T05:31:22.132Z,9.80
2023-05-13T05:32:23.997Z,10.72
2023-05-13T05:33:25.771Z,10.66
2023-05-13T05:34:27.542Z,10.58
2023-05-13T05:35:29.291Z,10.92
2023-05-13T05:36:30.980Z,10.89
2023-05-13T05:37:32.730Z,10.94
2023-05-13T05:38:34.558Z,11.16
2023-05-13T05:39:36.343Z,11.14
2023-05-13T05:40:43.056Z,10.56
2023-05-13T05:41:44.798Z,11.27
2023-05-13T05:42:46.522Z,11.11
2023-05-13T05:43:48.514Z,11.17
2023-05-13T05:44:50.433Z,10.62
2023-05-13T05:45:52.389Z,11.34
2023-05-13T05:46:54.115Z,11.42
2023-05-13T05:47:55.811Z,11.30
2023-05-13T05:48:57.609Z,11.45
2023-05-13T05:49:59.358Z,11.50
2023-05-13T05:51:01.099Z,11.16
2023-05-13T05:52:02.947Z,11.36
2023-05-13T05:53:04.961Z,11.44
2023-05-13T05:54:06.707Z,11.11
2023-05-13T05:55:08.929Z,11.25
2023-05-13T05:56:10.688Z,11.04
2023-05-13T05:57:12.483Z,11.01
2023-05-13T05:58:17.365Z,11.01
2023-05-13T05:59:19.449Z,10.43
2023-05-13T06:00:21.771Z,10.69
2023-05-13T06:01:23.779Z,10.67
2023-05-13T06:02:25.657Z,9.91
2023-05-13T06:03:27.703Z,10.92
2023-05-13T06:04:29.629Z,10.92
2023-05-13T06:05:31.397Z,10.09
2023-05-13T06:06:33.320Z,10.95
2023-05-13T06:07:35.084Z,11.05
2023-05-13T06:08:36.711Z,11.15
2023-05-13T06:09:38.340Z,10.43
2023-05-13T06:10:40.061Z,11.23
2023-05-13T06:11:41.769Z,11.16
2023-05-13T06:12:43.703Z,10.98
2023-05-13T06:13:45.429Z,11.19
2023-05-13T06:14:47.150Z,11.21
2023-05-13T06:15:49.037Z,11.17
2023-05-13T06:16:51.322Z,11.06
2023-05-13T06:17:54.004Z,10.47
2023-05-13T06:18:56.169Z,11.20
2023-05-13T06:19:57.967Z,10.50
2023-05-13T06:20:59.690Z,11.28
2023-05-13T06:22:03.205Z,11.31
2023-05-13T06:23:05.820Z,11.28
2023-05-13T06:24:07.911Z,11.42
2023-05-13T06:25:10.022Z,10.92
2023-05-13T06:26:11.823Z,11.40
2023-05-13T06:27:13.868Z,11.57
2023-05-13T06:28:15.700Z,11.37
2023-05-13T06:29:17.378Z,11.41
2023-05-13T06:30:19.374Z,11.61
2023-05-13T06:31:21.323Z,11.25
2023-05-13T06:32:23.093Z,11.67
2023-05-13T06:33:25.014Z,11.01
2023-05-13T06:34:26.884Z,11.40
2023-05-13T06:35:28.696Z,11.73
2023-05-13T06:36:30.497Z,11.89
2023-05-13T06:37:32.182Z,11.86
2023-05-13T06:38:33.893Z,11.94
2023-05-13T06:39:35.611Z,11.99
2023-05-13T06:40:37.341Z,11.96
2023-05-13T06:41:42.329Z,11.89
2023-05-13T06:42:44.044Z,10.88
2023-05-13T06:43:45.912Z,11.71
2023-05-13T06:44:47.704Z,11.89
2023-05-13T06:45:49.506Z,11.82
2023-05-13T06:46:51.313Z,11.18
2023-05-13T06:47:53.810Z,11.12
2023-05-13T06:48:55.597Z,11.03
2023-05-13T06:49:57.309Z,11.08
2023-05-13T06:50:59.030Z,12.00
2023-05-13T06:52:00.758Z,12.09
2023-05-13T06:53:02.440Z,11.99
2023-05-13T06:54:04.214Z,12.06
2023-05-13T06:55:06.486Z,12.20
2023-05-13T06:56:08.265Z,12.21
2023-05-13T06:57:09.951Z,11.82
2023-05-13T06:58:11.723Z,11.96
2023-05-13T06:59:13.624Z,12.01
2023-05-13T07:00:15.829Z,12.21
2023-05-13T07:01:17.541Z,12.29
2023-05-13T07:02:19.311Z,12.25
2023-05-13T07:03:21.136Z,11.77
2023-05-13T07:04:22.888Z,12.44
2023-05-13T07:05:24.776Z,12.52
2023-05-13T07:06:26.535Z,12.52
2023-05-13T07:07:28.247Z,12.41
2023-05-13T07:08:30.336Z,12.56
2023-05-13T07:09:32.164Z,12.66
2023-05-13T07:10:34.495Z,12.65
2023-05-13T07:11:37.028Z,12.82
2023-05-13T07:12:38.821Z,12.76
2023-05-13T07:13:40.627Z,12.92
2023-05-13T07:14:42.339Z,12.89
2023-05-13T07:15:44.040Z,13.17
2023-05-13T07:16:45.832Z,13.20
2023-05-13T07:17:47.710Z,13.33
2023-05-13T07:18:49.817Z,13.34
2023-05-13T07:19:51.722Z,13.21
2023-05-13T07:20:53.548Z,13.61
2023-05-13T07:21:55.296Z,13.68
2023-05-13T07:22:57.600Z,12.98
2023-05-13T07:23:59.297Z,13.73
2023-05-13T07:25:01.134Z,13.59
2023-05-13T07:26:03.044Z,13.59
2023-05-13T07:27:04.878Z,12.93
2023-05-13T07:28:06.609Z,12.67
2023-05-13T07:29:08.363Z,12.39
2023-05-13T07:30:11.398Z,12.82
2023-05-13T07:31:13.310Z,12.17
2023-05-13T07:32:15.129Z,13.15
2023-05-13T07:33:17.104Z,13.41
2023-05-13T07:34:19.322Z,13.76
2023-05-13T07:35:21.436Z,14.03
2023-05-13T07:36:23.407Z,14.14
2023-05-13T07:37:27.997Z,13.46
2023-05-13T07:38:29.749Z,13.39
2023-05-13T07:39:31.544Z,14.41
2023-05-13T07:40:33.268Z,14.61
2023-05-13T07:41:36.653Z,13.80
2023-05-13T07:42:38.314Z,14.14
2023-05-13T07:43:40.070Z,14.03
2023-05-13T07:44:41.951Z,14.24
2023-05-13T07:45:43.763Z,14.41
2023-05-13T07:46:45.563Z,14.76
2023-05-13T07:47:47.372Z,14.03
2023-05-13T07:48:49.097Z,14.93
2023-05-13T07:49:50.932Z,15.05
2023-05-13T07:50:52.730Z,15.15
2023-05-13T07:51:54.490Z,14.79
2023-05-13T07:52:56.372Z,14.10
2023-05-13T07:53:58.221Z,15.16
2023-05-13T07:54:59.956Z,14.30
2023-05-13T07:56:01.624Z,14.28
2023-05-13T07:57:03.459Z,15.11
2023-05-13T07:58:05.146Z,14.29
2023-05-13T07:59:06.772Z,15.16
2023-05-13T08:00:09.063Z,15.32
2023-05-13T08:01:10.778Z,14.62
2023-05-13T08:02:12.632Z,14.65
2023-05-13T08:03:14.455Z,15.53
2023-05-13T08:04:16.385Z,15.16
2023-05-13T08:05:18.221Z,15.92
2023-05-13T08:06:19.886Z,15.84
2023-05-13T08:07:21.597Z,15.74
2023-05-13T08:08:23.297Z,15.45
2023-05-13T08:09:24.946Z,15.59
2023-05-13T08:10:26.671Z,15.52
2023-05-13T08:11:29.345Z,15.83
2023-05-13T08:12:31.350Z,16.04
2023-05-13T08:13:33.046Z,16.12
2023-05-13T08:14:34.767Z,15.27
2023-05-13T08:15:36.500Z,14.76
2023-05-13T08:16:38.584Z,15.54
2023-05-13T08:17:40.518Z,15.50
2023-05-13T08:18:43.013Z,15.27
2023-05-13T08:19:44.631Z,15.32
2023-05-13T08:20:46.339Z,15.13
2023-05-13T08:21:47.966Z,15.31
2023-05-13T08:22:49.838Z,14.63
2023-05-13T08:23:52.229Z,14.81
2023-05-13T08:24:53.894Z,14.79
2023-05-13T08:25:55.652Z,14.66
2023-05-13T08:26:57.437Z,14.63
2023-05-13T08:27:59.229Z,14.43
2023-05-13T08:29:00.923Z,14.48
2023-05-13T08:30:02.781Z,14.58
2023-05-13T08:31:04.888Z,15.69
2023-05-13T08:32:06.858Z,15.10
2023-05-13T08:33:08.805Z,15.05
2023-05-13T08:34:10.550Z,14.98
2023-05-13T08:35:12.258Z,16.15
2023-05-13T08:36:14.756Z,16.22
2023-05-13T08:37:16.546Z,16.19
2023-05-13T08:38:18.579Z,16.84
2023-05-13T08:39:20.637Z,17.19
2023-05-13T08:40:22.790Z,17.43
2023-05-13T08:41:24.583Z,17.81
2023-05-13T08:42:36.264Z,17.66
2023-05-13T08:43:38.806Z,16.80
2023-05-13T08:44:43.276Z,17.07
2023-05-13T08:45:48.173Z,16.32
2023-05-13T08:46:58.946Z,16.88
2023-05-13T08:48:02.438Z,16.11
2023-05-13T08:49:04.981Z,17.07
2023-05-13T08:50:07.648Z,17.31
2023-05-13T08:51:09.864Z,17.89
2023-05-13T08:52:11.753Z,18.19
2023-05-13T08:53:15.177Z,17.93
2023-05-13T08:54:17.910Z,18.75
2023-05-13T08:55:20.477Z,18.25
2023-05-13T08:56:22.373Z,18.11
2023-05-13T08:57:24.048Z,17.83
2023-05-13T08:58:25.835Z,18.62
2023-05-13T08:59:27.561Z,18.86
2023-05-13T09:00:29.635Z,18.53
2023-05-13T09:01:32.208Z,19.13
2023-05-13T09:02:33.974Z,19.37
2023-05-13T09:03:40.038Z,19.33
2023-05-13T09:04:43.385Z,19.33
2023-05-13T09:05:45.264Z,19.57
2023-05-13T09:06:48.087Z,19.34
2023-05-13T09:07:49.714Z,19.22
2023-05-13T09:08:51.600Z,18.43
2023-05-13T09:09:53.421Z,18.83
2023-05-13T09:10:55.569Z,19.43
2023-05-13T09:11:57.361Z,19.49
2023-05-13T09:12:59.233Z,19.71
2023-05-13T09:14:03.111Z,19.86
2023-05-13T09:15:09.545Z,19.90
2023-05-13T09:16:12.059Z,20.07
2023-05-13T09:17:13.998Z,19.84
2023-05-13T09:18:18.539Z,19.57
2023-05-13T09:19:20.821Z,20.16
2023-05-13T09:20:23.264Z,19.53
2023-05-13T09:21:27.196Z,20.13
2023-05-13T09:22:28.982Z,19.67
2023-05-13T09:23:31.389Z,19.38
2023-05-13T09:24:33.150Z,19.35
2023-05-13T09:25:36.917Z,19.13
2023-05-13T09:26:39.940Z,18.91
2023-05-13T09:27:49.980Z,18.81
2023-05-13T09:29:25.132Z,19.11
2023-05-13T09:30:27.716Z,19.72
2023-05-13T09:31:33.322Z,19.94
2023-05-13T09:32:35.129Z,19.37
2023-05-13T09:33:36.884Z,19.59
2023-05-13T09:34:38.624Z,19.75
2023-05-13T09:35:51.395Z,20.11
2023-05-13T09:37:01.496Z,20.86
2023-05-13T09:38:14.998Z,20.32
2023-05-13T09:39:17.228Z,21.21
2023-05-13T09:40:19.303Z,20.54
2023-05-13T09:41:21.332Z,21.20
2023-05-13T09:42:23.196Z,20.68
2023-05-13T09:43:34.315Z,20.98
2023-05-13T09:44:36.132Z,21.02
2023-05-13T09:45:37.854Z,21.54
2023-05-13T09:46:39.728Z,21.48
2023-05-13T09:47:42.781Z,21.49
2023-05-13T09:48:44.796Z,21.24
2023-05-13T09:49:55.635Z,21.51
2023-05-13T09:50:57.381Z,20.99
2023-05-13T09:51:59.069Z,21.51
2023-05-13T09:53:11.162Z,20.61
2023-05-13T09:54:13.073Z,21.10
2023-05-13T09:55:14.886Z,20.94
2023-05-13T09:56:20.141Z,21.89
2023-05-13T09:57:21.909Z,21.14
2023-05-13T09:58:26.033Z,21.51
2023-05-13T09:59:27.997Z,20.45
2023-05-13T10:00:33.193Z,21.21
2023-05-13T10:01:36.456Z,21.58
2023-05-13T10:02:39.356Z,20.90
2023-05-13T10:03:41.205Z,21.04
2023-05-13T10:04:43.674Z,21.04
2023-05-13T10:05:45.681Z,21.18
2023-05-13T10:06:49.059Z,21.77
2023-05-13T10:07:50.819Z,21.61
2023-05-13T10:08:53.956Z,22.05
2023-05-13T10:10:00.859Z,21.71
2023-05-13T10:11:03.854Z,22.43
